sensor_id;sensor_type;location;lat;lon;timestamp;P1;durP1;ratioP1;P2;durP2;ratioP2
47103;SDS011;32853;52.164;5.400;2022-09-09T00:04:43;1.92;;;0.50;;
47103;SDS011;32853;52.164;5.400;2022-09-09T00:10:03;1.50;;;0.40;;
47103;SDS011;32853;52.164;5.400;2022-09-09T00:15:26;0.47;;;0.43;;
47103;SDS011;32853;52.164;5.400;2022-09-09T00:21:10;1.05;;;0.95;;
47103;SDS011;32853;52.164;5.400;2022-09-09T00:23:43;0.63;;;0.40;;
47103;SDS011;32853;52.164;5.400;2022-09-09T00:35:04;2.10;;;0.85;;
47103;SDS011;32853;52.164;5.400;2022-09-09T00:37:40;0.73;;;0.40;;
47103;SDS011;32853;52.164;5.400;2022-09-09T00:40:18;2.17;;;0.65;;
47103;SDS011;32853;52.164;5.400;2022-09-09T00:42:54;5.88;;;0.50;;
47103;SDS011;32853;52.164;5.400;2022-09-09T00:45:40;0.88;;;0.50;;
47103;SDS011;32853;52.164;5.400;2022-09-09T00:51:48;1.05;;;0.60;;
47103;SDS011;32853;52.164;5.400;2022-09-09T00:58:01;3.67;;;0.82;;
47103;SDS011;32853;52.164;5.400;2022-09-09T01:08:43;4.13;;;0.85;;
47103;SDS011;32853;52.164;5.400;2022-09-09T01:11:22;1.70;;;0.68;;
47103;SDS011;32853;52.164;5.400;2022-09-09T01:13:55;2.72;;;0.80;;
47103;SDS011;32853;52.164;5.400;2022-09-09T01:16:28;2.20;;;0.85;;
47103;SDS011;32853;52.164;5.400;2022-09-09T01:18:58;2.38;;;1.20;;
47103;SDS011;32853;52.164;5.400;2022-09-09T01:21:38;2.03;;;0.90;;
47103;SDS011;32853;52.164;5.400;2022-09-09T01:24:31;8.70;;;0.90;;
47103;SDS011;32853;52.164;5.400;2022-09-09T01:27:06;1.85;;;0.90;;
47103;SDS011;32853;52.164;5.400;2022-09-09T01:29:41;4.15;;;1.05;;
47103;SDS011;32853;52.164;5.400;2022-09-09T01:37:56;2.45;;;0.95;;
47103;SDS011;32853;52.164;5.400;2022-09-09T01:40:21;1.40;;;0.80;;
47103;SDS011;32853;52.164;5.400;2022-09-09T01:42:48;3.45;;;1.00;;
47103;SDS011;32853;52.164;5.400;2022-09-09T01:45:19;6.10;;;1.33;;
47103;SDS011;32853;52.164;5.400;2022-09-09T01:47:45;4.80;;;1.30;;
47103;SDS011;32853;52.164;5.400;2022-09-09T01:50:10;3.38;;;1.10;;
47103;SDS011;32853;52.164;5.400;2022-09-09T01:52:41;3.75;;;1.00;;
47103;SDS011;32853;52.164;5.400;2022-09-09T01:55:08;2.28;;;1.20;;
47103;SDS011;32853;52.164;5.400;2022-09-09T01:57:39;4.03;;;1.25;;
47103;SDS011;32853;52.164;5.400;2022-09-09T02:00:15;2.83;;;1.17;;
47103;SDS011;32853;52.164;5.400;2022-09-09T02:08:09;5.40;;;1.58;;
47103;SDS011;32853;52.164;5.400;2022-09-09T02:13:29;3.72;;;1.83;;
47103;SDS011;32853;52.164;5.400;2022-09-09T02:16:03;5.60;;;1.52;;
47103;SDS011;32853;52.164;5.400;2022-09-09T02:21:13;4.00;;;1.65;;
47103;SDS011;32853;52.164;5.400;2022-09-09T02:23:41;2.97;;;1.73;;
47103;SDS011;32853;52.164;5.400;2022-09-09T02:26:14;5.80;;;2.53;;
47103;SDS011;32853;52.164;5.400;2022-09-09T02:28:45;2.58;;;1.80;;
47103;SDS011;32853;52.164;5.400;2022-09-09T02:31:12;4.57;;;1.77;;
47103;SDS011;32853;52.164;5.400;2022-09-09T02:33:42;2.80;;;1.60;;
47103;SDS011;32853;52.164;5.400;2022-09-09T02:36:11;2.72;;;1.85;;
47103;SDS011;32853;52.164;5.400;2022-09-09T02:38:42;3.55;;;1.75;;
47103;SDS011;32853;52.164;5.400;2022-09-09T02:41:11;4.47;;;1.98;;
47103;SDS011;32853;52.164;5.400;2022-09-09T02:52:44;3.72;;;2.15;;
47103;SDS011;32853;52.164;5.400;2022-09-09T02:55:37;4.95;;;2.20;;
47103;SDS011;32853;52.164;5.400;2022-09-09T02:58:05;3.05;;;2.13;;
47103;SDS011;32853;52.164;5.400;2022-09-09T03:00:34;7.00;;;2.50;;
47103;SDS011;32853;52.164;5.400;2022-09-09T03:03:05;5.38;;;3.10;;
47103;SDS011;32853;52.164;5.400;2022-09-09T03:05:33;3.10;;;2.45;;
47103;SDS011;32853;52.164;5.400;2022-09-09T03:07:59;3.78;;;2.70;;
47103;SDS011;32853;52.164;5.400;2022-09-09T03:10:24;6.82;;;2.05;;
47103;SDS011;32853;52.164;5.400;2022-09-09T03:12:49;9.30;;;2.67;;
47103;SDS011;32853;52.164;5.400;2022-09-09T03:15:15;3.92;;;2.15;;
47103;SDS011;32853;52.164;5.400;2022-09-09T03:17:44;7.00;;;2.45;;
47103;SDS011;32853;52.164;5.400;2022-09-09T03:20:09;6.22;;;2.45;;
47103;SDS011;32853;52.164;5.400;2022-09-09T03:22:35;4.72;;;2.80;;
47103;SDS011;32853;52.164;5.400;2022-09-09T03:25:00;6.63;;;2.85;;
47103;SDS011;32853;52.164;5.400;2022-09-09T03:27:27;5.28;;;2.55;;
47103;SDS011;32853;52.164;5.400;2022-09-09T03:29:53;5.25;;;2.70;;
47103;SDS011;32853;52.164;5.400;2022-09-09T03:32:19;5.47;;;2.88;;
47103;SDS011;32853;52.164;5.400;2022-09-09T03:34:47;4.72;;;2.50;;
47103;SDS011;32853;52.164;5.400;2022-09-09T03:37:14;6.00;;;2.63;;
47103;SDS011;32853;52.164;5.400;2022-09-09T03:39:40;3.67;;;2.38;;
47103;SDS011;32853;52.164;5.400;2022-09-09T03:42:05;7.32;;;2.63;;
47103;SDS011;32853;52.164;5.400;2022-09-09T03:44:31;4.70;;;2.63;;
47103;SDS011;32853;52.164;5.400;2022-09-09T03:46:56;5.47;;;2.47;;
47103;SDS011;32853;52.164;5.400;2022-09-09T03:49:22;4.25;;;2.70;;
47103;SDS011;32853;52.164;5.400;2022-09-09T03:51:50;7.30;;;3.35;;
47103;SDS011;32853;52.164;5.400;2022-09-09T03:54:15;4.53;;;2.22;;
47103;SDS011;32853;52.164;5.400;2022-09-09T03:56:40;5.07;;;3.47;;
47103;SDS011;32853;52.164;5.400;2022-09-09T03:59:06;8.70;;;3.00;;
47103;SDS011;32853;52.164;5.400;2022-09-09T04:01:33;4.47;;;2.88;;
47103;SDS011;32853;52.164;5.400;2022-09-09T04:04:01;4.50;;;3.30;;
47103;SDS011;32853;52.164;5.400;2022-09-09T04:08:59;4.18;;;2.95;;
47103;SDS011;32853;52.164;5.400;2022-09-09T04:11:24;5.20;;;2.55;;
47103;SDS011;32853;52.164;5.400;2022-09-09T04:13:55;3.20;;;2.55;;
47103;SDS011;32853;52.164;5.400;2022-09-09T04:16:24;8.95;;;2.88;;
47103;SDS011;32853;52.164;5.400;2022-09-09T04:18:53;4.88;;;2.88;;
47103;SDS011;32853;52.164;5.400;2022-09-09T04:21:19;5.63;;;3.33;;
47103;SDS011;32853;52.164;5.400;2022-09-09T04:23:54;5.57;;;3.05;;
47103;SDS011;32853;52.164;5.400;2022-09-09T04:26:29;5.80;;;2.33;;
47103;SDS011;32853;52.164;5.400;2022-09-09T04:31:47;10.90;;;3.13;;
47103;SDS011;32853;52.164;5.400;2022-09-09T04:37:03;14.75;;;5.13;;
47103;SDS011;32853;52.164;5.400;2022-09-09T04:39:29;5.28;;;2.90;;
47103;SDS011;32853;52.164;5.400;2022-09-09T04:41:57;8.07;;;3.08;;
47103;SDS011;32853;52.164;5.400;2022-09-09T04:44:32;6.43;;;3.47;;
47103;SDS011;32853;52.164;5.400;2022-09-09T04:46:57;6.53;;;3.05;;
47103;SDS011;32853;52.164;5.400;2022-09-09T04:49:23;3.05;;;2.30;;
47103;SDS011;32853;52.164;5.400;2022-09-09T04:51:48;5.80;;;2.25;;
47103;SDS011;32853;52.164;5.400;2022-09-09T04:54:14;6.60;;;3.50;;
47103;SDS011;32853;52.164;5.400;2022-09-09T04:56:54;4.28;;;2.60;;
47103;SDS011;32853;52.164;5.400;2022-09-09T04:59:20;5.47;;;2.33;;
47103;SDS011;32853;52.164;5.400;2022-09-09T05:01:48;5.63;;;2.60;;
47103;SDS011;32853;52.164;5.400;2022-09-09T05:04:16;4.97;;;2.17;;
47103;SDS011;32853;52.164;5.400;2022-09-09T05:06:41;4.05;;;2.47;;
47103;SDS011;32853;52.164;5.400;2022-09-09T05:09:07;5.50;;;2.47;;
47103;SDS011;32853;52.164;5.400;2022-09-09T05:11:33;5.65;;;2.00;;
47103;SDS011;32853;52.164;5.400;2022-09-09T05:14:01;3.85;;;2.00;;
47103;SDS011;32853;52.164;5.400;2022-09-09T05:16:28;3.28;;;2.42;;
47103;SDS011;32853;52.164;5.400;2022-09-09T05:18:55;3.60;;;2.13;;
47103;SDS011;32853;52.164;5.400;2022-09-09T05:21:29;7.72;;;2.00;;
47103;SDS011;32853;52.164;5.400;2022-09-09T05:23:56;6.35;;;2.47;;
47103;SDS011;32853;52.164;5.400;2022-09-09T05:26:21;4.25;;;2.22;;
47103;SDS011;32853;52.164;5.400;2022-09-09T05:28:47;7.40;;;2.00;;
47103;SDS011;32853;52.164;5.400;2022-09-09T05:31:15;6.93;;;2.10;;
47103;SDS011;32853;52.164;5.400;2022-09-09T05:33:46;10.88;;;3.00;;
47103;SDS011;32853;52.164;5.400;2022-09-09T05:36:18;2.38;;;1.85;;
47103;SDS011;32853;52.164;5.400;2022-09-09T05:38:45;5.43;;;1.90;;
47103;SDS011;32853;52.164;5.400;2022-09-09T05:41:11;6.00;;;2.28;;
47103;SDS011;32853;52.164;5.400;2022-09-09T05:43:45;3.78;;;2.05;;
47103;SDS011;32853;52.164;5.400;2022-09-09T05:46:23;6.57;;;2.22;;
47103;SDS011;32853;52.164;5.400;2022-09-09T05:51:23;6.75;;;2.53;;
47103;SDS011;32853;52.164;5.400;2022-09-09T05:53:53;6.63;;;3.42;;
47103;SDS011;32853;52.164;5.400;2022-09-09T05:56:20;5.63;;;2.30;;
47103;SDS011;32853;52.164;5.400;2022-09-09T05:58:48;12.88;;;3.47;;
47103;SDS011;32853;52.164;5.400;2022-09-09T06:01:16;4.80;;;2.55;;
47103;SDS011;32853;52.164;5.400;2022-09-09T06:03:43;9.70;;;2.28;;
47103;SDS011;32853;52.164;5.400;2022-09-09T06:06:12;3.72;;;2.03;;
47103;SDS011;32853;52.164;5.400;2022-09-09T06:08:41;6.63;;;2.00;;
47103;SDS011;32853;52.164;5.400;2022-09-09T06:11:27;6.85;;;2.10;;
47103;SDS011;32853;52.164;5.400;2022-09-09T06:13:58;6.18;;;2.30;;
47103;SDS011;32853;52.164;5.400;2022-09-09T06:16:24;14.38;;;3.00;;
47103;SDS011;32853;52.164;5.400;2022-09-09T06:18:52;9.30;;;2.15;;
47103;SDS011;32853;52.164;5.400;2022-09-09T06:21:29;12.27;;;2.70;;
47103;SDS011;32853;52.164;5.400;2022-09-09T06:23:57;10.57;;;2.88;;
47103;SDS011;32853;52.164;5.400;2022-09-09T06:26:26;4.75;;;2.03;;
47103;SDS011;32853;52.164;5.400;2022-09-09T06:28:54;5.25;;;2.28;;
47103;SDS011;32853;52.164;5.400;2022-09-09T06:31:22;4.47;;;1.83;;
47103;SDS011;32853;52.164;5.400;2022-09-09T06:33:49;8.32;;;2.72;;
47103;SDS011;32853;52.164;5.400;2022-09-09T06:36:17;5.47;;;2.40;;
47103;SDS011;32853;52.164;5.400;2022-09-09T06:39:02;8.25;;;2.00;;
47103;SDS011;32853;52.164;5.400;2022-09-09T06:41:30;6.32;;;2.05;;
47103;SDS011;32853;52.164;5.400;2022-09-09T06:43:56;5.68;;;1.92;;
47103;SDS011;32853;52.164;5.400;2022-09-09T06:46:29;16.08;;;3.13;;
47103;SDS011;32853;52.164;5.400;2022-09-09T06:48:58;6.85;;;2.20;;
47103;SDS011;32853;52.164;5.400;2022-09-09T06:51:25;9.15;;;2.38;;
47103;SDS011;32853;52.164;5.400;2022-09-09T06:53:54;5.93;;;1.75;;
47103;SDS011;32853;52.164;5.400;2022-09-09T06:56:22;6.63;;;1.63;;
47103;SDS011;32853;52.164;5.400;2022-09-09T06:58:53;10.00;;;2.80;;
47103;SDS011;32853;52.164;5.400;2022-09-09T07:01:23;10.20;;;2.28;;
47103;SDS011;32853;52.164;5.400;2022-09-09T07:03:51;7.55;;;1.63;;
47103;SDS011;32853;52.164;5.400;2022-09-09T07:06:23;2.75;;;1.27;;
47103;SDS011;32853;52.164;5.400;2022-09-09T07:08:54;5.55;;;1.77;;
47103;SDS011;32853;52.164;5.400;2022-09-09T07:11:30;4.72;;;1.40;;
47103;SDS011;32853;52.164;5.400;2022-09-09T07:13:58;4.90;;;1.42;;
47103;SDS011;32853;52.164;5.400;2022-09-09T07:16:24;6.00;;;1.40;;
47103;SDS011;32853;52.164;5.400;2022-09-09T07:18:52;13.20;;;1.45;;
47103;SDS011;32853;52.164;5.400;2022-09-09T07:21:22;8.02;;;1.52;;
47103;SDS011;32853;52.164;5.400;2022-09-09T07:23:50;10.50;;;2.33;;
47103;SDS011;32853;52.164;5.400;2022-09-09T07:26:24;6.95;;;2.03;;
47103;SDS011;32853;52.164;5.400;2022-09-09T07:28:54;7.68;;;1.63;;
47103;SDS011;32853;52.164;5.400;2022-09-09T07:31:28;9.73;;;1.45;;
47103;SDS011;32853;52.164;5.400;2022-09-09T07:33:55;10.57;;;2.03;;
47103;SDS011;32853;52.164;5.400;2022-09-09T07:36:29;7.60;;;1.48;;
47103;SDS011;32853;52.164;5.400;2022-09-09T07:39:11;4.78;;;1.00;;
47103;SDS011;32853;52.164;5.400;2022-09-09T07:41:45;5.55;;;1.42;;
47103;SDS011;32853;52.164;5.400;2022-09-09T07:44:24;9.52;;;2.17;;
47103;SDS011;32853;52.164;5.400;2022-09-09T07:46:50;4.32;;;1.42;;
47103;SDS011;32853;52.164;5.400;2022-09-09T07:49:16;10.20;;;1.98;;
47103;SDS011;32853;52.164;5.400;2022-09-09T07:51:44;6.20;;;1.60;;
47103;SDS011;32853;52.164;5.400;2022-09-09T07:54:12;8.35;;;1.52;;
47103;SDS011;32853;52.164;5.400;2022-09-09T07:56:40;8.40;;;1.42;;
47103;SDS011;32853;52.164;5.400;2022-09-09T07:59:06;5.22;;;1.10;;
47103;SDS011;32853;52.164;5.400;2022-09-09T08:01:33;4.20;;;1.58;;
47103;SDS011;32853;52.164;5.400;2022-09-09T08:04:04;6.13;;;1.10;;
47103;SDS011;32853;52.164;5.400;2022-09-09T08:06:33;6.95;;;1.30;;
47103;SDS011;32853;52.164;5.400;2022-09-09T08:09:01;13.55;;;1.77;;
47103;SDS011;32853;52.164;5.400;2022-09-09T08:11:27;11.82;;;1.73;;
47103;SDS011;32853;52.164;5.400;2022-09-09T08:13:53;7.93;;;1.20;;
47103;SDS011;32853;52.164;5.400;2022-09-09T08:16:20;4.90;;;1.23;;
47103;SDS011;32853;52.164;5.400;2022-09-09T08:18:51;5.10;;;1.17;;
47103;SDS011;32853;52.164;5.400;2022-09-09T08:21:20;3.90;;;0.80;;
47103;SDS011;32853;52.164;5.400;2022-09-09T08:23:53;13.00;;;2.63;;
47103;SDS011;32853;52.164;5.400;2022-09-09T08:26:21;6.57;;;1.40;;
47103;SDS011;32853;52.164;5.400;2022-09-09T08:29:18;6.97;;;1.77;;
47103;SDS011;32853;52.164;5.400;2022-09-09T08:31:48;4.28;;;1.23;;
47103;SDS011;32853;52.164;5.400;2022-09-09T08:34:18;7.07;;;0.90;;
47103;SDS011;32853;52.164;5.400;2022-09-09T08:36:46;6.38;;;1.33;;
47103;SDS011;32853;52.164;5.400;2022-09-09T08:39:14;6.53;;;1.30;;
47103;SDS011;32853;52.164;5.400;2022-09-09T08:47:19;13.68;;;1.42;;
47103;SDS011;32853;52.164;5.400;2022-09-09T08:53:09;6.22;;;1.88;;
47103;SDS011;32853;52.164;5.400;2022-09-09T08:55:51;5.05;;;2.08;;
47103;SDS011;32853;52.164;5.400;2022-09-09T08:58:24;3.90;;;1.50;;
47103;SDS011;32853;52.164;5.400;2022-09-09T09:07:01;6.57;;;1.10;;
47103;SDS011;32853;52.164;5.400;2022-09-09T09:12:28;6.88;;;0.90;;
47103;SDS011;32853;52.164;5.400;2022-09-09T09:14:58;7.35;;;0.98;;
47103;SDS011;32853;52.164;5.400;2022-09-09T09:17:25;6.60;;;1.10;;
47103;SDS011;32853;52.164;5.400;2022-09-09T09:19:53;7.38;;;1.00;;
47103;SDS011;32853;52.164;5.400;2022-09-09T09:22:22;5.05;;;1.23;;
47103;SDS011;32853;52.164;5.400;2022-09-09T09:25:18;7.13;;;0.70;;
47103;SDS011;32853;52.164;5.400;2022-09-09T09:31:31;6.05;;;1.30;;
47103;SDS011;32853;52.164;5.400;2022-09-09T09:33:50;10.30;;;1.08;;
47103;SDS011;32853;52.164;5.400;2022-09-09T09:36:18;8.20;;;0.93;;
47103;SDS011;32853;52.164;5.400;2022-09-09T09:39:00;5.70;;;0.63;;
47103;SDS011;32853;52.164;5.400;2022-09-09T09:41:41;10.40;;;1.48;;
47103;SDS011;32853;52.164;5.400;2022-09-09T09:44:30;6.03;;;1.15;;
47103;SDS011;32853;52.164;5.400;2022-09-09T09:49:55;4.45;;;1.10;;
47103;SDS011;32853;52.164;5.400;2022-09-09T09:52:24;10.65;;;1.70;;
47103;SDS011;32853;52.164;5.400;2022-09-09T09:54:52;6.00;;;1.10;;
47103;SDS011;32853;52.164;5.400;2022-09-09T09:57:18;5.68;;;1.02;;
47103;SDS011;32853;52.164;5.400;2022-09-09T10:00:27;8.63;;;1.20;;
47103;SDS011;32853;52.164;5.400;2022-09-09T10:02:48;10.20;;;1.33;;
47103;SDS011;32853;52.164;5.400;2022-09-09T10:07:45;7.47;;;1.48;;
47103;SDS011;32853;52.164;5.400;2022-09-09T10:10:12;6.05;;;1.00;;
47103;SDS011;32853;52.164;5.400;2022-09-09T10:12:55;10.75;;;1.10;;
47103;SDS011;32853;52.164;5.400;2022-09-09T10:18:20;6.03;;;1.42;;
47103;SDS011;32853;52.164;5.400;2022-09-09T10:20:54;10.70;;;1.50;;
47103;SDS011;32853;52.164;5.400;2022-09-09T10:26:28;8.18;;;1.00;;
47103;SDS011;32853;52.164;5.400;2022-09-09T10:37:36;5.47;;;1.13;;
47103;SDS011;32853;52.164;5.400;2022-09-09T10:42:56;4.40;;;1.15;;
47103;SDS011;32853;52.164;5.400;2022-09-09T10:57:33;13.38;;;1.13;;
47103;SDS011;32853;52.164;5.400;2022-09-09T11:03:18;3.35;;;1.27;;
47103;SDS011;32853;52.164;5.400;2022-09-09T11:08:23;8.05;;;1.10;;
47103;SDS011;32853;52.164;5.400;2022-09-09T11:16:31;3.17;;;1.10;;
47103;SDS011;32853;52.164;5.400;2022-09-09T11:21:55;7.47;;;1.15;;
47103;SDS011;32853;52.164;5.400;2022-09-09T11:24:26;10.57;;;1.70;;
47103;SDS011;32853;52.164;5.400;2022-09-09T11:27:15;10.63;;;1.45;;
47103;SDS011;32853;52.164;5.400;2022-09-09T11:32:45;6.53;;;1.52;;
47103;SDS011;32853;52.164;5.400;2022-09-09T11:38:44;6.22;;;1.35;;
47103;SDS011;32853;52.164;5.400;2022-09-09T11:41:16;4.10;;;0.80;;
47103;SDS011;32853;52.164;5.400;2022-09-09T11:43:46;4.75;;;1.05;;
47103;SDS011;32853;52.164;5.400;2022-09-09T11:46:17;10.30;;;1.83;;
47103;SDS011;32853;52.164;5.400;2022-09-09T11:48:58;7.90;;;1.42;;
47103;SDS011;32853;52.164;5.400;2022-09-09T11:51:27;8.45;;;1.00;;
47103;SDS011;32853;52.164;5.400;2022-09-09T11:54:01;4.57;;;0.88;;
47103;SDS011;32853;52.164;5.400;2022-09-09T11:56:47;5.10;;;0.98;;
47103;SDS011;32853;52.164;5.400;2022-09-09T11:59:32;3.38;;;1.30;;
47103;SDS011;32853;52.164;5.400;2022-09-09T12:04:30;5.95;;;0.80;;
47103;SDS011;32853;52.164;5.400;2022-09-09T12:09:50;4.57;;;2.20;;
47103;SDS011;32853;52.164;5.400;2022-09-09T12:12:25;11.73;;;2.47;;
47103;SDS011;32853;52.164;5.400;2022-09-09T12:17:41;7.97;;;1.63;;
47103;SDS011;32853;52.164;5.400;2022-09-09T12:20:11;5.93;;;1.27;;
47103;SDS011;32853;52.164;5.400;2022-09-09T12:25:46;4.03;;;1.17;;
47103;SDS011;32853;52.164;5.400;2022-09-09T12:36:53;3.22;;;1.10;;
47103;SDS011;32853;52.164;5.400;2022-09-09T12:39:34;3.17;;;0.95;;
47103;SDS011;32853;52.164;5.400;2022-09-09T12:42:04;3.53;;;1.02;;
47103;SDS011;32853;52.164;5.400;2022-09-09T12:44:39;5.65;;;2.35;;
47103;SDS011;32853;52.164;5.400;2022-09-09T12:47:15;6.30;;;1.45;;
47103;SDS011;32853;52.164;5.400;2022-09-09T12:49:41;9.20;;;1.75;;
47103;SDS011;32853;52.164;5.400;2022-09-09T12:52:14;3.25;;;1.33;;
47103;SDS011;32853;52.164;5.400;2022-09-09T12:55:00;3.47;;;1.27;;
47103;SDS011;32853;52.164;5.400;2022-09-09T12:57:29;8.77;;;1.40;;
47103;SDS011;32853;52.164;5.400;2022-09-09T13:00:07;8.07;;;1.65;;
47103;SDS011;32853;52.164;5.400;2022-09-09T13:05:19;8.98;;;1.42;;
47103;SDS011;32853;52.164;5.400;2022-09-09T13:07:47;3.75;;;1.17;;
47103;SDS011;32853;52.164;5.400;2022-09-09T13:10:13;7.07;;;1.25;;
47103;SDS011;32853;52.164;5.400;2022-09-09T13:12:40;7.25;;;1.50;;
47103;SDS011;32853;52.164;5.400;2022-09-09T13:15:22;4.93;;;1.00;;
47103;SDS011;32853;52.164;5.400;2022-09-09T13:17:56;9.82;;;1.17;;
47103;SDS011;32853;52.164;5.400;2022-09-09T13:20:24;9.85;;;1.20;;
47103;SDS011;32853;52.164;5.400;2022-09-09T13:22:50;10.05;;;0.93;;
47103;SDS011;32853;52.164;5.400;2022-09-09T13:25:19;3.33;;;1.10;;
47103;SDS011;32853;52.164;5.400;2022-09-09T13:27:56;4.70;;;1.30;;
47103;SDS011;32853;52.164;5.400;2022-09-09T13:30:30;7.13;;;1.50;;
47103;SDS011;32853;52.164;5.400;2022-09-09T13:35:50;3.28;;;0.93;;
47103;SDS011;32853;52.164;5.400;2022-09-09T13:38:54;2.78;;;1.20;;
47103;SDS011;32853;52.164;5.400;2022-09-09T13:41:23;6.70;;;1.10;;
47103;SDS011;32853;52.164;5.400;2022-09-09T13:43:50;7.22;;;1.30;;
47103;SDS011;32853;52.164;5.400;2022-09-09T13:51:51;6.57;;;1.60;;
47103;SDS011;32853;52.164;5.400;2022-09-09T13:54:27;5.60;;;1.40;;
47103;SDS011;32853;52.164;5.400;2022-09-09T13:56:52;4.90;;;1.30;;
47103;SDS011;32853;52.164;5.400;2022-09-09T13:59:20;5.45;;;1.70;;
47103;SDS011;32853;52.164;5.400;2022-09-09T14:01:46;6.05;;;1.05;;
47103;SDS011;32853;52.164;5.400;2022-09-09T14:04:16;5.05;;;1.10;;
47103;SDS011;32853;52.164;5.400;2022-09-09T14:06:49;4.35;;;0.90;;
47103;SDS011;32853;52.164;5.400;2022-09-09T14:09:17;4.22;;;1.40;;
47103;SDS011;32853;52.164;5.400;2022-09-09T14:11:43;3.85;;;0.90;;
47103;SDS011;32853;52.164;5.400;2022-09-09T14:14:14;7.15;;;1.08;;
47103;SDS011;32853;52.164;5.400;2022-09-09T14:16:39;5.80;;;1.23;;
47103;SDS011;32853;52.164;5.400;2022-09-09T14:19:07;4.65;;;1.02;;
47103;SDS011;32853;52.164;5.400;2022-09-09T14:21:33;4.43;;;1.02;;
47103;SDS011;32853;52.164;5.400;2022-09-09T14:26:28;4.45;;;1.25;;
47103;SDS011;32853;52.164;5.400;2022-09-09T14:29:12;3.33;;;1.10;;
47103;SDS011;32853;52.164;5.400;2022-09-09T14:31:37;4.00;;;1.70;;
47103;SDS011;32853;52.164;5.400;2022-09-09T14:34:04;4.05;;;1.00;;
47103;SDS011;32853;52.164;5.400;2022-09-09T14:36:31;3.47;;;1.13;;
47103;SDS011;32853;52.164;5.400;2022-09-09T14:38:56;3.22;;;0.90;;
47103;SDS011;32853;52.164;5.400;2022-09-09T14:41:22;3.17;;;1.10;;
47103;SDS011;32853;52.164;5.400;2022-09-09T14:43:48;3.75;;;1.08;;
47103;SDS011;32853;52.164;5.400;2022-09-09T14:46:15;4.70;;;1.17;;
47103;SDS011;32853;52.164;5.400;2022-09-09T14:48:42;3.70;;;1.17;;
47103;SDS011;32853;52.164;5.400;2022-09-09T14:51:10;6.25;;;1.23;;
47103;SDS011;32853;52.164;5.400;2022-09-09T14:53:41;6.95;;;1.98;;
47103;SDS011;32853;52.164;5.400;2022-09-09T14:56:09;3.25;;;1.30;;
47103;SDS011;32853;52.164;5.400;2022-09-09T14:58:45;7.60;;;1.33;;
47103;SDS011;32853;52.164;5.400;2022-09-09T15:01:24;5.25;;;1.60;;
47103;SDS011;32853;52.164;5.400;2022-09-09T15:03:54;7.23;;;2.23;;
47103;SDS011;32853;52.164;5.400;2022-09-09T15:06:21;9.20;;;2.88;;
47103;SDS011;32853;52.164;5.400;2022-09-09T15:08:52;8.85;;;1.80;;
47103;SDS011;32853;52.164;5.400;2022-09-09T15:11:33;5.03;;;1.67;;
47103;SDS011;32853;52.164;5.400;2022-09-09T15:14:06;6.88;;;1.95;;
47103;SDS011;32853;52.164;5.400;2022-09-09T15:16:33;3.85;;;1.50;;
47103;SDS011;32853;52.164;5.400;2022-09-09T15:19:02;6.30;;;1.73;;
47103;SDS011;32853;52.164;5.400;2022-09-09T15:24:02;6.60;;;1.75;;
47103;SDS011;32853;52.164;5.400;2022-09-09T15:26:36;3.00;;;0.80;;
47103;SDS011;32853;52.164;5.400;2022-09-09T15:29:04;4.53;;;1.08;;
47103;SDS011;32853;52.164;5.400;2022-09-09T15:31:32;4.72;;;0.80;;
47103;SDS011;32853;52.164;5.400;2022-09-09T15:34:02;3.20;;;0.75;;
47103;SDS011;32853;52.164;5.400;2022-09-09T15:36:32;1.67;;;0.52;;
47103;SDS011;32853;52.164;5.400;2022-09-09T15:39:04;2.92;;;0.77;;
47103;SDS011;32853;52.164;5.400;2022-09-09T15:41:32;3.13;;;0.65;;
47103;SDS011;32853;52.164;5.400;2022-09-09T15:43:59;2.67;;;0.70;;
47103;SDS011;32853;52.164;5.400;2022-09-09T15:46:44;3.92;;;1.15;;
47103;SDS011;32853;52.164;5.400;2022-09-09T15:49:12;3.50;;;1.15;;
47103;SDS011;32853;52.164;5.400;2022-09-09T15:51:43;3.88;;;0.80;;
47103;SDS011;32853;52.164;5.400;2022-09-09T15:54:14;3.70;;;1.02;;
47103;SDS011;32853;52.164;5.400;2022-09-09T15:56:42;1.67;;;0.73;;
47103;SDS011;32853;52.164;5.400;2022-09-09T15:59:08;4.22;;;1.17;;
47103;SDS011;32853;52.164;5.400;2022-09-09T16:01:34;2.28;;;0.90;;
47103;SDS011;32853;52.164;5.400;2022-09-09T16:04:02;3.55;;;0.77;;
47103;SDS011;32853;52.164;5.400;2022-09-09T16:06:31;3.70;;;1.13;;
47103;SDS011;32853;52.164;5.400;2022-09-09T16:09:04;1.15;;;0.73;;
47103;SDS011;32853;52.164;5.400;2022-09-09T16:11:32;5.07;;;2.35;;
47103;SDS011;32853;52.164;5.400;2022-09-09T16:14:04;5.15;;;1.10;;
47103;SDS011;32853;52.164;5.400;2022-09-09T16:16:33;3.15;;;1.02;;
47103;SDS011;32853;52.164;5.400;2022-09-09T16:19:01;4.13;;;0.80;;
47103;SDS011;32853;52.164;5.400;2022-09-09T16:21:32;2.92;;;1.27;;
47103;SDS011;32853;52.164;5.400;2022-09-09T16:24:01;4.15;;;1.15;;
47103;SDS011;32853;52.164;5.400;2022-09-09T16:26:28;4.75;;;0.73;;
47103;SDS011;32853;52.164;5.400;2022-09-09T16:28:55;1.52;;;0.63;;
47103;SDS011;32853;52.164;5.400;2022-09-09T16:31:24;5.22;;;0.98;;
47103;SDS011;32853;52.164;5.400;2022-09-09T16:33:58;2.92;;;0.98;;
47103;SDS011;32853;52.164;5.400;2022-09-09T16:36:25;2.38;;;0.90;;
47103;SDS011;32853;52.164;5.400;2022-09-09T16:38:52;2.70;;;1.00;;
47103;SDS011;32853;52.164;5.400;2022-09-09T16:41:22;2.50;;;0.65;;
47103;SDS011;32853;52.164;5.400;2022-09-09T16:43:47;1.52;;;0.70;;
47103;SDS011;32853;52.164;5.400;2022-09-09T16:46:17;1.30;;;0.52;;
47103;SDS011;32853;52.164;5.400;2022-09-09T16:49:25;2.05;;;0.70;;
47103;SDS011;32853;52.164;5.400;2022-09-09T16:51:52;3.40;;;0.98;;
47103;SDS011;32853;52.164;5.400;2022-09-09T16:54:18;4.07;;;0.65;;
47103;SDS011;32853;52.164;5.400;2022-09-09T16:56:45;3.30;;;0.40;;
47103;SDS011;32853;52.164;5.400;2022-09-09T16:59:28;2.22;;;0.82;;
47103;SDS011;32853;52.164;5.400;2022-09-09T17:01:57;2.45;;;0.88;;
47103;SDS011;32853;52.164;5.400;2022-09-09T17:04:24;5.22;;;0.90;;
47103;SDS011;32853;52.164;5.400;2022-09-09T17:06:59;5.35;;;1.00;;
47103;SDS011;32853;52.164;5.400;2022-09-09T17:09:35;3.72;;;0.95;;
47103;SDS011;32853;52.164;5.400;2022-09-09T17:18:09;4.97;;;1.00;;
47103;SDS011;32853;52.164;5.400;2022-09-09T17:27:14;2.90;;;1.00;;
47103;SDS011;32853;52.164;5.400;2022-09-09T17:29:46;6.18;;;1.30;;
47103;SDS011;32853;52.164;5.400;2022-09-09T17:35:20;3.80;;;1.27;;
47103;SDS011;32853;52.164;5.400;2022-09-09T17:37:46;2.67;;;1.17;;
47103;SDS011;32853;52.164;5.400;2022-09-09T17:40:14;6.65;;;1.48;;
47103;SDS011;32853;52.164;5.400;2022-09-09T17:42:40;4.97;;;1.00;;
47103;SDS011;32853;52.164;5.400;2022-09-09T17:47:47;3.05;;;0.90;;
47103;SDS011;32853;52.164;5.400;2022-09-09T17:50:14;4.10;;;1.38;;
47103;SDS011;32853;52.164;5.400;2022-09-09T17:52:40;6.80;;;1.27;;
47103;SDS011;32853;52.164;5.400;2022-09-09T17:55:06;3.92;;;1.55;;
47103;SDS011;32853;52.164;5.400;2022-09-09T17:57:31;4.32;;;1.05;;
47103;SDS011;32853;52.164;5.400;2022-09-09T17:59:57;10.77;;;3.72;;
47103;SDS011;32853;52.164;5.400;2022-09-09T18:02:23;4.00;;;1.10;;
47103;SDS011;32853;52.164;5.400;2022-09-09T18:04:48;4.43;;;1.08;;
47103;SDS011;32853;52.164;5.400;2022-09-09T18:07:13;4.22;;;1.27;;
47103;SDS011;32853;52.164;5.400;2022-09-09T18:09:39;2.22;;;0.90;;
47103;SDS011;32853;52.164;5.400;2022-09-09T18:12:11;10.13;;;2.70;;
47103;SDS011;32853;52.164;5.400;2022-09-09T18:14:38;2.83;;;0.98;;
47103;SDS011;32853;52.164;5.400;2022-09-09T18:17:04;2.22;;;1.63;;
47103;SDS011;32853;52.164;5.400;2022-09-09T18:19:30;2.45;;;0.90;;
47103;SDS011;32853;52.164;5.400;2022-09-09T18:21:57;2.33;;;0.80;;
47103;SDS011;32853;52.164;5.400;2022-09-09T18:24:31;5.80;;;1.55;;
47103;SDS011;32853;52.164;5.400;2022-09-09T18:27:08;4.38;;;1.13;;
47103;SDS011;32853;52.164;5.400;2022-09-09T18:29:33;5.28;;;1.10;;